Aeroporto :
LOGIN :

Iscrizione | Disclaimer

   EN    FR    IT 

 










Sommario :    VFR   VFR Marginale   IFR   IFR Intensivo   IFR Molto Intensivo
Visibilità : 
Base nubi : 
>= 8 km
>= 3000ft
5 / 8 km
1000 / 3000 ft
1500m / 5 km
500 / 1000 ft
800 / 1500m
200 / 500 ft
< 800m
< 200 ft
Simboli :   Temporali  Nebbia  Neve Forte  Precipitazioni Forti  Vento > 20 kt
SIGMETs :   Varie  Temporali  Ghiacco  Turbolenza  Onda orograficha  Ceneri Vulcaniche






- Altitudine del aeroporto : 288 ft
- Codice IATA : BZZ


EGVN - RAF Brize Norton

ULTIMO METAR :
  • 231111Z 27014G25KT 6000 RA FEW007 BKN012 BKN020 11/09 Q1013 BECMG 9999 NSW SCT025 RMK GRN BECMG BLU

METARs OBSOLETI :
  • 231050Z 25015G28KT 9999 BKN011 BKN020 12/10 Q1011 BECMG BKN025
  • 231021Z 25015G27KT 9999 -RADZ BKN012 BKN020 12/10 Q1011 BECMG SCT025 RMK GRN BECMG BLU
  • 230950Z 25017G30KT 9999 BKN011 OVC020 12/10 Q1011 BECMG SCT025 RMK GRN BECMG BLU
  • 230920Z 25018G30KT 9999 OVC012 12/10 Q1010 NOSIG RMK GRN GRN
  • 230850Z 26017G31KT 9999 -RADZ OVC010 12/10 Q1010 NOSIG RMK GRN GRN
  • 230820Z 25017G32KT 9999 -RADZ BKN010 OVC018 12/10 Q1009 NOSIG RMK GRN GRN

TAF TAF EGVN
Valido dal 23 a 09 ore il 24 a 09 ore UTC


230720Z 2309/2409 24018G34KT 9999 BKN008
BECMG 2309/2311 27015G25KT SCT025
PROB40
TEMPO 2309/2311 4000 RADZ
PROB30
TEMPO 2311/2314 -SHRA SCT023
BECMG 2314/2316 30010KT
BECMG 2400/2403 -RA BKN007
TEMPO 2403/2406 3000 -DZ BKN004
BECMG 2406/2408 22015G25KT NSW BKN015



MetMap, La meteo Aeronautica in un colpo d'occhio ! - Copyright ORBIFLY Dicembre 2007 - Disclaimer

ORBIFLY MET'MAP TEAM :

Programmazione e sviluppo : Alexandra Zaïnal
Concezione : Baudouin d'Aumeries
Aiuto per la programmazione : Marc-Olivier Méhu
Supporto tecnico e logistico : Manuel Goepfert
Aiuto per la traduzione : Arnaldo La Scala

Contatto : metmap@orbifly.com




FONTI E CREDITI :

   NOAA